Time;durP1;ratioP1;P1;durP2;ratioP2;P2;SDS_P1;SDS_P2;PMS_P1;PMS_P2;Temp;Humidity;BMP_temperature;BMP_pressure;BME280_temperature;BME280_humidity;BME280_pressure;Samples;Min_cycle;Max_cycle;Signal;HPM_P1;HPM_P2
2022/03/25 00:00:06;;;;;;;26.83;15.50;;;12.70;38.40;;;;;;5132563;27;20472;-84
2022/03/25 00:02:40;;;;;;;23.70;13.40;;;12.60;38.50;;;;;;5133299;27;20456;-84
2022/03/25 00:05:08;;;;;;;24.90;14.60;;;12.50;38.70;;;;;;5130908;27;20838;-84
2022/03/25 00:07:35;;;;;;;25.73;15.33;;;12.50;38.80;;;;;;5134493;27;21391;-84
2022/03/25 00:10:03;;;;;;;33.47;16.90;;;12.50;38.90;;;;;;5133455;27;20461;-84
2022/03/25 00:12:31;;;;;;;29.10;14.90;;;12.40;38.90;;;;;;5132579;27;20507;-84
2022/03/25 00:14:58;;;;;;;25.43;16.00;;;12.40;38.90;;;;;;5131314;27;20450;-84
2022/03/25 00:17:25;;;;;;;29.37;15.13;;;12.30;39.10;;;;;;5133085;27;20465;-84
2022/03/25 00:19:52;;;;;;;24.60;14.93;;;12.30;39.10;;;;;;5132267;27;21048;-85
2022/03/25 00:22:19;;;;;;;31.33;15.97;;;12.30;39.20;;;;;;5114451;27;20477;-84
2022/03/25 00:24:46;;;;;;;28.13;15.60;;;12.30;39.30;;;;;;5133490;27;20523;-83
2022/03/25 00:27:14;;;;;;;26.27;15.17;;;12.20;39.20;;;;;;5132740;27;20473;-84
2022/03/25 00:29:42;;;;;;;31.80;17.57;;;12.20;39.30;;;;;;5132180;27;20449;-84
2022/03/25 00:32:10;;;;;;;26.27;15.20;;;12.10;39.40;;;;;;5130880;27;20836;-85
2022/03/25 00:34:38;;;;;;;28.47;14.73;;;12.10;39.50;;;;;;5104836;27;20650;-85
2022/03/25 00:37:06;;;;;;;23.70;14.17;;;12.00;39.40;;;;;;5130738;27;20566;-84
2022/03/25 00:39:33;;;;;;;26.93;15.37;;;12.00;39.50;;;;;;5136125;27;20481;-84
2022/03/25 00:42:00;;;;;;;27.00;13.90;;;11.90;39.40;;;;;;5133281;27;20440;-83
2022/03/25 00:44:27;;;;;;;29.50;14.53;;;11.90;39.50;;;;;;5117261;27;20513;-84
2022/03/25 00:46:55;;;;;;;24.30;14.30;;;11.90;39.70;;;;;;5130753;27;20542;-83
2022/03/25 00:49:22;;;;;;;25.13;13.40;;;11.80;39.60;;;;;;5132294;27;20445;-84
2022/03/25 00:51:49;;;;;;;21.73;14.10;;;11.80;39.70;;;;;;5132150;27;20456;-84
2022/03/25 00:54:17;;;;;;;25.90;14.73;;;11.70;39.90;;;;;;5134713;27;20942;-84
2022/03/25 00:56:47;;;;;;;28.20;15.00;;;11.80;40.00;;;;;;5118289;27;21162;-83
2022/03/25 00:59:14;;;;;;;26.37;13.63;;;11.70;39.80;;;;;;5133015;27;20452;-84
2022/03/25 01:01:43;;;;;;;22.57;13.47;;;11.70;39.80;;;;;;5097089;27;20477;-84
2022/03/25 01:04:11;;;;;;;26.90;14.67;;;11.60;39.80;;;;;;5132959;27;20490;-84
2022/03/25 01:06:38;;;;;;;27.10;14.27;;;11.60;39.90;;;;;;5134949;27;20437;-83
2022/03/25 01:09:06;;;;;;;30.60;16.10;;;11.60;40.00;;;;;;5132992;27;20814;-85
2022/03/25 01:11:35;;;;;;;24.00;15.10;;;11.50;39.80;;;;;;5117931;27;20460;-84
2022/03/25 01:14:02;;;;;;;29.07;14.47;;;11.50;39.80;;;;;;5111556;27;20442;-83
2022/03/25 01:16:30;;;;;;;26.40;15.33;;;11.50;40.00;;;;;;5116879;27;20453;-84
2022/03/25 01:18:57;;;;;;;23.40;14.00;;;11.40;40.00;;;;;;5116016;27;20538;-83
2022/03/25 01:21:25;;;;;;;24.73;14.60;;;11.40;40.00;;;;;;5133794;27;20465;-85
2022/03/25 01:23:52;;;;;;;24.07;13.20;;;11.40;40.10;;;;;;5114202;27;21736;-84
2022/03/25 01:26:19;;;;;;;21.60;13.63;;;11.40;40.00;;;;;;5116023;27;20982;-84
2022/03/25 01:28:47;;;;;;;24.13;13.43;;;11.30;40.20;;;;;;5110892;27;20477;-84
2022/03/25 01:31:16;;;;;;;22.63;12.77;;;11.20;40.40;;;;;;5135763;27;20446;-84
2022/03/25 01:33:43;;;;;;;25.63;13.97;;;11.20;40.70;;;;;;5134490;27;20451;-84
2022/03/25 01:36:10;;;;;;;22.70;12.60;;;11.20;41.10;;;;;;5129900;27;20988;-85
2022/03/25 01:38:39;;;;;;;24.20;14.40;;;11.10;41.40;;;;;;5114271;27;20476;-84
2022/03/25 01:41:07;;;;;;;23.77;15.40;;;11.10;41.20;;;;;;5113976;27;20468;-84
2022/03/25 01:43:34;;;;;;;22.37;13.30;;;11.10;41.00;;;;;;5115433;27;20489;-85
2022/03/25 01:46:01;;;;;;;32.10;15.30;;;11.00;40.80;;;;;;5112880;27;20986;-85
2022/03/25 01:48:29;;;;;;;26.13;13.60;;;11.00;40.80;;;;;;5132617;27;20474;-85
2022/03/25 01:50:56;;;;;;;21.10;12.57;;;11.00;40.80;;;;;;5129456;27;20957;-84
2022/03/25 01:53:25;;;;;;;28.97;14.80;;;11.00;40.90;;;;;;5102450;27;20654;-85
2022/03/25 01:55:56;;;;;;;26.93;14.00;;;10.90;40.80;;;;;;5129034;27;20565;-85
2022/03/25 01:58:27;;;;;;;23.63;13.87;;;10.90;40.90;;;;;;5113081;27;20556;-84
2022/03/25 02:00:54;;;;;;;32.63;13.57;;;10.80;40.90;;;;;;5131879;27;20469;-85
2022/03/25 02:03:21;;;;;;;29.30;12.90;;;10.80;40.90;;;;;;5131063;27;20461;-84
2022/03/25 02:05:49;;;;;;;20.90;12.37;;;10.80;41.10;;;;;;5129338;27;20457;-84
2022/03/25 02:08:17;;;;;;;22.07;11.97;;;10.80;41.10;;;;;;5113069;27;20492;-84
2022/03/25 02:10:45;;;;;;;23.47;13.00;;;10.80;41.10;;;;;;5113580;27;20955;-84
2022/03/25 02:13:14;;;;;;;22.00;13.73;;;10.70;41.50;;;;;;5116210;27;20460;-84
2022/03/25 02:15:47;;;;;;;27.20;12.80;;;10.70;41.80;;;;;;5112805;27;20544;-83
2022/03/25 02:18:15;;;;;;;24.33;13.50;;;10.60;42.00;;;;;;5112987;27;20497;-84
2022/03/25 02:20:43;;;;;;;26.17;14.40;;;10.60;42.30;;;;;;5121319;27;20470;-84
2022/03/25 02:23:14;;;;;;;21.13;13.20;;;10.60;42.10;;;;;;5111049;27;21091;-84
2022/03/25 02:25:42;;;;;;;26.23;13.47;;;10.60;42.20;;;;;;5112851;27;20502;-84
2022/03/25 02:28:11;;;;;;;24.07;14.90;;;10.50;42.30;;;;;;5112089;27;20484;-84
2022/03/25 02:30:39;;;;;;;25.53;13.07;;;10.60;42.30;;;;;;5111385;27;20965;-84
2022/03/25 02:33:08;;;;;;;28.93;14.80;;;10.50;42.20;;;;;;5120539;27;21165;-84
2022/03/25 02:35:43;;;;;;;21.87;14.57;;;10.50;42.10;;;;;;5129607;27;20442;-84
2022/03/25 02:38:14;;;;;;;22.43;13.87;;;10.40;41.80;;;;;;5116797;27;20475;-85
2022/03/25 02:40:41;;;;;;;25.23;13.40;;;10.40;41.70;;;;;;5116121;27;20461;-84
2022/03/25 02:43:11;;;;;;;26.10;14.50;;;10.40;42.40;;;;;;5112082;27;20454;-84
2022/03/25 02:45:42;;;;;;;26.67;14.23;;;10.30;41.70;;;;;;5112608;27;20464;-84
2022/03/25 02:48:11;;;;;;;27.67;14.23;;;10.20;42.00;;;;;;5129849;27;20516;-85
2022/03/25 02:50:38;;;;;;;25.53;13.40;;;10.10;42.00;;;;;;5114348;27;20849;-85
2022/03/25 02:53:05;;;;;;;28.07;15.40;;;10.10;42.10;;;;;;5132932;27;20860;-85
2022/03/25 02:55:34;;;;;;;24.93;14.00;;;10.10;42.20;;;;;;5132665;27;20479;-84
2022/03/25 02:58:01;;;;;;;23.67;13.30;;;10.10;42.50;;;;;;5129521;27;20469;-85
2022/03/25 03:00:28;;;;;;;23.60;13.73;;;10.10;42.60;;;;;;5131377;27;20565;-85
2022/03/25 03:02:55;;;;;;;25.30;14.43;;;10.10;42.40;;;;;;5128788;27;20470;-84
2022/03/25 03:05:23;;;;;;;25.03;12.90;;;10.10;42.20;;;;;;5130407;27;20451;-84
2022/03/25 03:07:50;;;;;;;25.00;13.50;;;10.00;42.00;;;;;;5110585;27;20472;-84
2022/03/25 03:10:18;;;;;;;29.60;14.30;;;9.90;43.10;;;;;;5130369;27;20442;-84
2022/03/25 03:12:46;;;;;;;25.33;13.00;;;9.80;43.20;;;;;;5128989;27;21232;-83
2022/03/25 03:15:15;;;;;;;26.13;14.30;;;9.80;43.10;;;;;;5129340;27;20487;-84
2022/03/25 03:17:42;;;;;;;27.13;13.43;;;9.80;43.10;;;;;;5131281;27;20540;-84
2022/03/25 03:20:10;;;;;;;26.63;14.37;;;9.80;43.40;;;;;;5129535;27;20812;-84
2022/03/25 03:22:38;;;;;;;23.80;13.93;;;9.70;43.40;;;;;;5134063;27;21023;-85
2022/03/25 03:25:06;;;;;;;20.33;12.80;;;9.70;43.40;;;;;;5129830;27;20483;-84
2022/03/25 03:27:33;;;;;;;25.93;13.73;;;9.70;43.40;;;;;;5114907;27;20561;-85
2022/03/25 03:30:01;;;;;;;29.37;14.30;;;9.70;43.30;;;;;;5119212;27;20796;-85
2022/03/25 03:32:30;;;;;;;25.53;13.47;;;9.70;43.10;;;;;;5130632;27;20532;-84
2022/03/25 03:34:57;;;;;;;25.50;13.40;;;9.60;43.20;;;;;;5110632;27;20883;-85
2022/03/25 03:37:24;;;;;;;25.17;13.10;;;9.60;43.30;;;;;;5130505;27;20469;-85
2022/03/25 03:39:52;;;;;;;21.27;12.73;;;9.60;43.60;;;;;;5129111;27;20445;-85
2022/03/25 03:42:19;;;;;;;24.80;14.40;;;9.60;43.90;;;;;;5129365;27;20490;-84
2022/03/25 03:44:46;;;;;;;20.77;13.07;;;9.60;44.00;;;;;;5127829;27;20900;-83
2022/03/25 03:47:15;;;;;;;21.30;11.97;;;9.60;44.10;;;;;;5113465;27;20473;-84
2022/03/25 03:49:42;;;;;;;21.43;12.30;;;9.60;44.00;;;;;;5130845;27;21009;-84
2022/03/25 03:52:09;;;;;;;24.13;13.17;;;9.50;44.20;;;;;;5133002;27;20543;-85
2022/03/25 03:54:37;;;;;;;22.20;13.17;;;9.50;44.10;;;;;;5116009;27;20502;-84
2022/03/25 03:57:07;;;;;;;17.03;11.60;;;9.40;43.90;;;;;;5136778;27;20469;-84
2022/03/25 03:59:34;;;;;;;25.43;13.00;;;9.40;44.30;;;;;;5116444;27;21118;-84
2022/03/25 04:02:01;;;;;;;21.50;12.07;;;9.40;44.60;;;;;;5131072;27;20802;-84
2022/03/25 04:04:29;;;;;;;32.13;14.30;;;9.40;44.40;;;;;;5134243;27;20854;-85
2022/03/25 04:06:56;;;;;;;28.33;13.37;;;9.40;44.20;;;;;;5132570;27;20969;-85
2022/03/25 04:09:24;;;;;;;26.73;13.63;;;9.40;44.10;;;;;;5133518;27;20434;-85
2022/03/25 04:11:51;;;;;;;25.40;12.70;;;9.40;44.40;;;;;;5133078;27;20972;-85
2022/03/25 04:14:18;;;;;;;28.77;14.43;;;9.40;44.70;;;;;;5133552;27;20947;-85
2022/03/25 04:16:45;;;;;;;20.97;11.97;;;9.30;44.90;;;;;;5115579;27;20458;-85
2022/03/25 04:19:12;;;;;;;21.77;12.60;;;9.30;44.90;;;;;;5135341;27;20445;-86
2022/03/25 04:21:41;;;;;;;24.73;12.90;;;9.20;44.80;;;;;;5132344;27;20474;-85
2022/03/25 04:24:08;;;;;;;21.03;14.03;;;9.20;44.80;;;;;;5132570;27;20497;-85
2022/03/25 04:26:35;;;;;;;23.50;13.20;;;9.10;44.90;;;;;;5136419;27;20466;-85
2022/03/25 04:29:02;;;;;;;24.07;14.40;;;9.10;44.90;;;;;;5108647;27;20469;-85
2022/03/25 04:31:29;;;;;;;25.67;14.13;;;9.10;45.10;;;;;;5132715;27;21054;-85
2022/03/25 04:33:56;;;;;;;29.10;14.73;;;9.10;45.50;;;;;;5131099;27;20745;-84
2022/03/25 04:36:23;;;;;;;22.13;13.40;;;9.10;46.00;;;;;;5134059;27;21128;-85
2022/03/25 04:38:52;;;;;;;23.53;12.97;;;9.10;45.70;;;;;;5112293;27;20466;-83
2022/03/25 04:41:19;;;;;;;30.40;15.57;;;9.10;45.40;;;;;;5133216;27;20469;-84
2022/03/25 04:43:47;;;;;;;22.60;14.33;;;9.10;45.00;;;;;;5130987;27;20782;-81
2022/03/25 04:46:14;;;;;;;31.57;16.03;;;9.00;44.70;;;;;;5131852;27;21190;-85
2022/03/25 04:48:42;;;;;;;28.57;16.23;;;8.80;45.60;;;;;;5130549;27;20486;-86
2022/03/25 04:51:09;;;;;;;33.07;15.97;;;8.80;45.80;;;;;;5130722;27;20799;-85
2022/03/25 04:53:36;;;;;;;26.70;15.03;;;8.70;45.90;;;;;;5132163;27;20441;-85
2022/03/25 04:56:05;;;;;;;27.17;13.83;;;8.80;45.70;;;;;;5132159;27;20457;-85
2022/03/25 04:58:32;;;;;;;41.03;14.03;;;8.80;45.30;;;;;;5133490;27;20472;-86
2022/03/25 05:00:59;;;;;;;22.43;12.10;;;8.80;45.10;;;;;;5132865;27;20447;-85
2022/03/25 05:03:26;;;;;;;20.57;10.93;;;8.80;45.20;;;;;;5131268;27;20533;-85
2022/03/25 05:05:53;;;;;;;26.80;12.80;;;8.80;45.00;;;;;;5130124;27;20444;-84
2022/03/25 05:08:21;;;;;;;21.23;13.70;;;8.80;44.70;;;;;;5133711;27;20634;-85
2022/03/25 05:10:48;;;;;;;25.07;14.07;;;8.80;44.90;;;;;;5129640;27;20446;-85
2022/03/25 05:13:16;;;;;;;22.07;13.40;;;8.70;45.20;;;;;;5130563;27;20510;-85
2022/03/25 05:15:43;;;;;;;23.53;13.00;;;8.70;45.00;;;;;;5113147;27;20449;-85
2022/03/25 05:18:11;;;;;;;23.13;14.37;;;8.70;44.70;;;;;;5133323;27;20825;-85
2022/03/25 05:20:38;;;;;;;26.53;14.90;;;8.70;44.70;;;;;;5132999;27;21013;-85
2022/03/25 05:23:05;;;;;;;23.40;13.87;;;8.70;45.00;;;;;;5132923;27;20484;-85
2022/03/25 05:25:32;;;;;;;24.40;14.50;;;8.60;44.90;;;;;;5132623;27;20464;-85
2022/03/25 05:27:59;;;;;;;23.57;14.30;;;8.60;45.10;;;;;;5131934;27;20835;-85
2022/03/25 05:30:30;;;;;;;28.97;14.73;;;8.50;45.50;;;;;;5131912;27;20927;-85
2022/03/25 05:32:58;;;;;;;26.13;14.70;;;8.40;45.60;;;;;;5104023;27;20449;-85
2022/03/25 05:35:26;;;;;;;26.23;14.33;;;8.50;45.50;;;;;;5134657;27;20465;-85
2022/03/25 05:37:54;;;;;;;27.47;15.33;;;8.50;45.40;;;;;;5129021;27;21044;-86
2022/03/25 05:40:23;;;;;;;27.87;14.33;;;8.50;45.50;;;;;;5131763;27;20460;-86
2022/03/25 05:42:51;;;;;;;24.50;14.20;;;8.50;45.70;;;;;;5130349;27;20552;-85
2022/03/25 05:45:20;;;;;;;26.90;14.27;;;8.50;45.90;;;;;;5129483;27;20446;-84
2022/03/25 05:47:49;;;;;;;33.50;14.13;;;8.50;46.20;;;;;;5123610;27;20477;-84
2022/03/25 05:50:16;;;;;;;29.23;14.10;;;8.50;46.10;;;;;;5130491;27;20459;-84
2022/03/25 05:52:44;;;;;;;26.47;14.37;;;8.60;46.00;;;;;;5106773;27;20438;-85
2022/03/25 05:55:13;;;;;;;23.70;14.60;;;8.60;45.70;;;;;;5125878;27;20472;-84
2022/03/25 05:57:40;;;;;;;23.90;13.07;;;8.60;45.60;;;;;;5128834;27;20461;-85
2022/03/25 06:00:09;;;;;;;28.30;14.53;;;8.60;45.60;;;;;;5126936;27;20461;-84
2022/03/25 06:02:42;;;;;;;24.23;14.30;;;8.60;45.80;;;;;;5128541;27;20482;-84
2022/03/25 06:05:11;;;;;;;29.23;13.13;;;8.60;45.80;;;;;;5126493;27;20449;-85
2022/03/25 06:07:39;;;;;;;23.83;12.97;;;8.60;45.90;;;;;;5110539;27;20643;-84
2022/03/25 06:10:08;;;;;;;31.57;14.80;;;8.60;46.00;;;;;;5124155;27;20454;-84
2022/03/25 06:12:35;;;;;;;30.93;15.20;;;8.50;46.30;;;;;;5130996;27;20453;-84
2022/03/25 06:15:03;;;;;;;30.57;14.93;;;8.50;46.50;;;;;;5126570;27;21314;-84
2022/03/25 06:17:30;;;;;;;32.60;17.93;;;8.50;46.60;;;;;;5110307;27;20527;-85
2022/03/25 06:19:57;;;;;;;38.20;20.00;;;8.50;46.50;;;;;;5102888;27;20446;-84
2022/03/25 06:22:27;;;;;;;33.03;19.03;;;8.60;46.50;;;;;;5127303;27;20509;-84
2022/03/25 06:24:54;;;;;;;47.87;24.60;;;8.60;46.80;;;;;;5126761;27;20511;-84
2022/03/25 06:27:21;;;;;;;65.03;30.87;;;8.60;46.60;;;;;;5127790;27;20465;-85
2022/03/25 06:29:48;;;;;;;75.23;40.60;;;8.60;46.80;;;;;;5125907;27;20461;-84
2022/03/25 06:32:15;;;;;;;72.20;34.73;;;8.60;47.00;;;;;;5127075;27;20450;-85
2022/03/25 06:34:42;;;;;;;57.90;28.60;;;8.60;47.10;;;;;;5127064;27;20449;-85
2022/03/25 06:37:09;;;;;;;64.87;28.20;;;8.60;47.20;;;;;;5126407;27;20718;-85
2022/03/25 06:39:38;;;;;;;55.53;25.50;;;8.60;47.30;;;;;;5127967;27;21081;-86
2022/03/25 06:42:06;;;;;;;46.00;21.10;;;8.60;47.50;;;;;;5109599;27;20469;-85
2022/03/25 06:44:33;;;;;;;40.77;18.80;;;8.60;47.70;;;;;;5127691;27;21024;-84
2022/03/25 06:47:00;;;;;;;29.43;17.63;;;8.60;47.70;;;;;;5128204;27;20449;-85
2022/03/25 06:49:27;;;;;;;36.73;19.00;;;8.70;48.00;;;;;;5128767;27;20433;-85
2022/03/25 06:51:54;;;;;;;36.50;18.67;;;8.80;48.40;;;;;;5125959;27;20430;-85
2022/03/25 06:54:22;;;;;;;34.87;19.37;;;8.80;48.60;;;;;;5108688;27;20445;-85
2022/03/25 06:56:51;;;;;;;34.10;17.60;;;8.70;48.90;;;;;;5124872;27;20454;-85
2022/03/25 06:59:20;;;;;;;27.93;15.00;;;8.80;49.00;;;;;;5130332;27;20450;-85
2022/03/25 07:01:47;;;;;;;32.20;15.50;;;8.80;48.80;;;;;;5106960;27;20469;-85
2022/03/25 07:04:15;;;;;;;32.40;17.30;;;8.90;48.90;;;;;;5127629;27;20555;-85
2022/03/25 07:06:46;;;;;;;34.83;15.97;;;8.90;49.00;;;;;;5102647;27;20978;-82
2022/03/25 07:09:13;;;;;;;34.90;18.87;;;9.00;49.00;;;;;;5106833;27;20888;-85
2022/03/25 07:11:42;;;;;;;29.30;18.07;;;9.00;48.90;;;;;;5127203;27;20796;-86
2022/03/25 07:14:10;;;;;;;34.87;18.73;;;9.10;48.80;;;;;;5125408;27;20468;-85
2022/03/25 07:16:42;;;;;;;32.27;17.83;;;9.10;49.00;;;;;;5107440;27;20457;-85
2022/03/25 07:19:09;;;;;;;31.00;16.17;;;9.10;49.20;;;;;;5125752;27;20748;-85
2022/03/25 07:21:37;;;;;;;30.10;15.43;;;9.20;49.20;;;;;;5127011;27;20442;-85
2022/03/25 07:24:04;;;;;;;26.43;15.97;;;9.20;49.00;;;;;;5126085;27;20541;-85
2022/03/25 07:26:31;;;;;;;37.10;15.63;;;9.30;48.70;;;;;;5129116;27;20450;-85
2022/03/25 07:28:58;;;;;;;30.97;16.33;;;9.40;48.40;;;;;;5109519;27;20482;-85
2022/03/25 07:31:28;;;;;;;24.67;14.50;;;9.30;48.30;;;;;;5130363;27;20470;-85
2022/03/25 07:33:55;;;;;;;29.57;15.43;;;9.30;49.10;;;;;;5128999;27;20440;-83
2022/03/25 07:36:22;;;;;;;29.10;14.50;;;9.30;48.70;;;;;;5114483;27;20561;-85
2022/03/25 07:38:49;;;;;;;29.00;15.60;;;9.50;49.00;;;;;;5127374;27;20511;-84
2022/03/25 07:41:16;;;;;;;34.07;15.97;;;9.60;49.00;;;;;;5129066;27;20446;-85
2022/03/25 07:43:43;;;;;;;26.27;16.27;;;9.60;48.80;;;;;;5130296;27;20469;-84
2022/03/25 07:46:11;;;;;;;27.70;14.83;;;9.70;48.70;;;;;;5129843;27;20464;-85
2022/03/25 07:48:39;;;;;;;28.60;14.70;;;9.70;48.30;;;;;;5130856;27;20462;-86
2022/03/25 07:51:08;;;;;;;27.90;16.13;;;9.80;48.60;;;;;;5129856;27;20451;-84
2022/03/25 07:53:35;;;;;;;27.57;15.00;;;9.80;48.40;;;;;;5127385;27;20454;-83
2022/03/25 07:56:02;;;;;;;28.00;16.63;;;9.90;48.50;;;;;;5129744;27;20444;-84
2022/03/25 07:58:30;;;;;;;29.50;15.87;;;10.00;47.50;;;;;;5129024;27;20472;-86
2022/03/25 08:00:56;;;;;;;24.03;15.93;;;10.00;46.80;;;;;;5108660;27;20481;-86
2022/03/25 08:03:23;;;;;;;32.67;16.40;;;9.90;47.60;;;;;;5130801;27;20475;-86
2022/03/25 08:05:52;;;;;;;27.67;16.07;;;10.00;47.10;;;;;;5128934;27;20453;-86
2022/03/25 08:08:19;;;;;;;32.73;16.50;;;10.10;47.30;;;;;;5128501;27;20470;-85
2022/03/25 08:10:47;;;;;;;32.90;16.40;;;10.20;47.50;;;;;;5128428;27;20478;-85
2022/03/25 08:13:15;;;;;;;27.13;16.17;;;10.30;46.60;;;;;;5128735;27;20450;-84
2022/03/25 08:15:42;;;;;;;28.13;15.40;;;10.30;46.50;;;;;;5128974;27;20446;-85
2022/03/25 08:18:11;;;;;;;27.47;16.27;;;10.30;46.60;;;;;;5129006;27;20469;-84
2022/03/25 08:20:40;;;;;;;28.53;16.63;;;10.30;46.50;;;;;;5129741;27;20944;-84
2022/03/25 08:23:11;;;;;;;32.40;18.83;;;10.30;46.40;;;;;;5108960;27;20979;-84
2022/03/25 08:28:23;;;;;;;30.73;16.50;;;10.50;46.40;;;;;;5128292;27;21075;-84
2022/03/25 08:30:50;;;;;;;31.40;16.27;;;10.60;46.30;;;;;;5127008;27;20448;-85
2022/03/25 08:33:18;;;;;;;33.97;17.53;;;10.70;46.30;;;;;;5109958;27;20442;-83
2022/03/25 08:35:47;;;;;;;34.03;17.87;;;10.80;45.90;;;;;;5129463;27;20461;-82
2022/03/25 08:38:15;;;;;;;30.73;17.00;;;11.00;45.90;;;;;;5128112;27;20614;-84
2022/03/25 08:40:42;;;;;;;36.00;17.67;;;11.20;45.40;;;;;;5112249;27;20454;-84
2022/03/25 08:43:09;;;;;;;37.83;22.00;;;11.40;45.70;;;;;;5131750;27;21064;-85
2022/03/25 08:45:36;;;;;;;44.40;20.20;;;11.50;45.60;;;;;;5131998;27;20457;-85
2022/03/25 08:48:04;;;;;;;39.00;19.67;;;11.60;45.40;;;;;;5130269;27;20472;-85
2022/03/25 08:50:31;;;;;;;34.50;18.30;;;11.80;45.20;;;;;;5131701;27;20474;-85
2022/03/25 08:52:58;;;;;;;41.37;19.23;;;11.90;44.60;;;;;;5127981;27;20442;-85
2022/03/25 08:55:26;;;;;;;30.27;17.47;;;12.00;44.30;;;;;;5130302;27;20449;-85
2022/03/25 08:57:53;;;;;;;31.33;17.90;;;12.20;44.30;;;;;;5131380;27;20458;-85
2022/03/25 09:00:20;;;;;;;35.10;18.20;;;12.30;43.70;;;;;;5130011;27;20452;-86
2022/03/25 09:02:48;;;;;;;30.37;16.63;;;12.40;43.60;;;;;;5129192;27;20478;-83
2022/03/25 09:05:16;;;;;;;35.00;16.53;;;12.60;43.40;;;;;;5110721;27;20442;-86
2022/03/25 09:07:44;;;;;;;33.03;16.90;;;12.70;42.90;;;;;;5130114;27;20461;-85
2022/03/25 09:10:14;;;;;;;37.57;16.97;;;12.70;42.00;;;;;;5130269;27;21059;-86
2022/03/25 09:12:43;;;;;;;32.00;16.73;;;12.80;41.50;;;;;;5114948;27;20465;-86
2022/03/25 09:15:12;;;;;;;31.93;16.60;;;12.80;41.80;;;;;;5129655;27;20449;-85
2022/03/25 09:17:40;;;;;;;35.07;17.87;;;13.10;41.80;;;;;;5131943;27;20461;-85
2022/03/25 09:20:08;;;;;;;33.20;17.50;;;13.30;41.80;;;;;;5131219;27;20442;-85
2022/03/25 09:22:35;;;;;;;37.07;18.10;;;13.50;42.30;;;;;;5129710;27;20856;-85
2022/03/25 09:25:04;;;;;;;31.73;18.40;;;13.70;42.10;;;;;;5128750;27;20453;-85
2022/03/25 09:27:31;;;;;;;33.03;18.70;;;13.90;41.50;;;;;;5131208;27;20480;-85
2022/03/25 09:29:59;;;;;;;32.27;18.87;;;14.20;41.30;;;;;;5129211;27;20442;-85
2022/03/25 09:32:27;;;;;;;41.40;18.63;;;14.40;42.00;;;;;;5130965;27;20446;-84
2022/03/25 09:35:09;;;;;;;35.57;18.80;;;14.70;41.40;;;;;;5132057;27;20825;-85
2022/03/25 09:37:37;;;;;;;34.27;18.60;;;14.90;40.80;;;;;;5129814;27;20480;-85
2022/03/25 09:40:05;;;;;;;33.67;18.00;;;15.00;40.70;;;;;;5130560;27;20452;-84
2022/03/25 09:42:33;;;;;;;32.93;17.23;;;15.20;40.50;;;;;;5131285;27;20449;-85
2022/03/25 09:45:03;;;;;;;36.23;18.30;;;15.50;40.10;;;;;;5128805;27;20442;-85
2022/03/25 09:47:31;;;;;;;34.60;19.37;;;15.70;38.80;;;;;;5131388;27;20564;-85
2022/03/25 09:49:59;;;;;;;39.00;20.20;;;15.90;39.30;;;;;;5129573;27;20540;-85
2022/03/25 09:52:29;;;;;;;48.87;21.23;;;16.10;38.20;;;;;;5130641;27;20445;-84
2022/03/25 09:54:56;;;;;;;35.30;19.73;;;16.40;37.60;;;;;;5130198;27;20458;-85
2022/03/25 09:57:23;;;;;;;34.87;19.10;;;16.60;37.50;;;;;;5130237;27;20496;-85
2022/03/25 09:59:50;;;;;;;41.40;20.33;;;16.80;37.30;;;;;;5110444;27;20450;-85
2022/03/25 10:02:18;;;;;;;35.57;19.93;;;17.00;37.20;;;;;;5129702;27;20476;-86
2022/03/25 10:04:46;;;;;;;40.07;20.67;;;17.30;36.50;;;;;;5129760;27;20473;-82
2022/03/25 10:07:19;;;;;;;34.27;19.77;;;17.50;35.80;;;;;;5130339;27;20453;-85
2022/03/25 10:09:47;;;;;;;38.27;19.80;;;17.70;36.20;;;;;;5128695;27;20469;-85
2022/03/25 10:12:26;;;;;;;40.73;19.50;;;18.00;35.60;;;;;;5130231;27;20442;-84
2022/03/25 10:15:11;;;;;;;39.83;21.57;;;18.10;34.60;;;;;;5130217;27;20462;-85
2022/03/25 10:17:47;;;;;;;39.60;19.90;;;18.20;34.70;;;;;;5129717;27;20480;-85
2022/03/25 10:20:15;;;;;;;35.97;19.83;;;18.30;34.60;;;;;;5128605;27;20455;-84
2022/03/25 10:22:57;;;;;;;46.73;22.20;;;18.50;34.10;;;;;;5129048;27;20445;-84
2022/03/25 10:25:50;;;;;;;42.53;20.70;;;18.60;34.20;;;;;;5132145;27;20912;-85
2022/03/25 10:28:26;;;;;;;39.87;22.93;;;18.80;33.00;;;;;;5128787;27;20519;-84
2022/03/25 10:30:54;;;;;;;48.33;21.57;;;19.10;33.00;;;;;;5129056;27;21066;-85
2022/03/25 10:33:29;;;;;;;42.63;20.23;;;19.30;32.50;;;;;;5126656;27;20477;-85
2022/03/25 10:35:59;;;;;;;41.70;22.33;;;19.40;31.60;;;;;;5125521;27;20591;-85
2022/03/25 10:38:27;;;;;;;43.70;22.20;;;19.60;30.70;;;;;;5128568;27;20954;-85
2022/03/25 10:40:56;;;;;;;36.53;19.70;;;19.80;30.60;;;;;;5124825;27;20459;-85
2022/03/25 10:43:24;;;;;;;48.10;23.43;;;19.80;30.00;;;;;;5126300;27;20465;-86
2022/03/25 10:45:52;;;;;;;38.00;21.03;;;19.70;30.60;;;;;;5126293;27;21005;-85
2022/03/25 10:48:21;;;;;;;40.53;21.27;;;19.90;29.90;;;;;;5126098;27;20469;-84
2022/03/25 10:51:04;;;;;;;41.33;22.13;;;20.00;28.20;;;;;;5126788;27;20535;-83
2022/03/25 10:53:33;;;;;;;43.00;23.60;;;19.90;27.60;;;;;;5126035;27;20942;-84
2022/03/25 10:56:03;;;;;;;37.13;21.07;;;20.20;27.50;;;;;;5106408;27;21022;-85
2022/03/25 10:58:30;;;;;;;38.97;21.00;;;20.40;27.10;;;;;;5128622;27;20901;-85
2022/03/25 11:00:58;;;;;;;42.43;22.63;;;20.50;27.30;;;;;;5127471;27;20816;-85
2022/03/25 11:03:26;;;;;;;36.87;20.80;;;20.60;26.60;;;;;;5132031;27;20565;-85
2022/03/25 11:05:54;;;;;;;39.03;21.13;;;20.90;25.50;;;;;;5130604;27;20452;-84
2022/03/25 11:08:22;;;;;;;34.50;21.47;;;20.70;26.20;;;;;;5132934;27;20491;-84
2022/03/25 11:10:50;;;;;;;39.60;21.93;;;20.70;25.30;;;;;;5129991;27;20456;-84
2022/03/25 11:13:18;;;;;;;44.33;21.93;;;20.90;25.50;;;;;;5129878;27;20447;-85
2022/03/25 11:15:46;;;;;;;41.87;22.43;;;21.20;25.80;;;;;;5132202;27;20454;-82
2022/03/25 11:18:14;;;;;;;41.43;21.67;;;21.50;25.30;;;;;;5130803;27;20610;-84
2022/03/25 11:20:42;;;;;;;40.80;22.10;;;21.70;24.70;;;;;;5131326;27;20457;-85
2022/03/25 11:23:14;;;;;;;35.60;19.43;;;21.80;25.40;;;;;;5113854;27;20553;-84
2022/03/25 11:25:46;;;;;;;35.97;21.93;;;21.90;23.70;;;;;;5133861;27;20452;-85
2022/03/25 11:28:17;;;;;;;36.70;19.50;;;21.80;24.00;;;;;;5135859;27;20580;-83
2022/03/25 11:30:44;;;;;;;39.20;21.53;;;22.00;23.50;;;;;;5134178;27;20450;-85
2022/03/25 11:33:11;;;;;;;37.50;20.83;;;22.00;23.50;;;;;;5131972;27;20529;-85
2022/03/25 11:35:39;;;;;;;35.60;20.33;;;22.10;24.30;;;;;;5141520;27;21027;-85
2022/03/25 11:38:22;;;;;;;36.47;20.80;;;22.20;23.70;;;;;;5130717;27;20772;-85
2022/03/25 11:40:53;;;;;;;40.10;19.60;;;22.50;23.10;;;;;;5134534;27;20484;-84
2022/03/25 11:43:22;;;;;;;36.50;19.77;;;22.80;22.60;;;;;;5114075;27;20625;-85
2022/03/25 11:46:06;;;;;;;39.43;19.83;;;22.80;22.20;;;;;;5133873;27;20536;-83
2022/03/25 11:48:43;;;;;;;38.43;20.70;;;22.80;22.10;;;;;;5129610;27;20472;-83
2022/03/25 11:51:36;;;;;;;46.17;21.67;;;22.90;23.00;;;;;;5131608;27;20544;-85
2022/03/25 11:54:38;;;;;;;33.90;20.53;;;23.20;22.80;;;;;;5133429;27;21147;-84
2022/03/25 11:57:07;;;;;;;38.20;21.40;;;23.30;22.70;;;;;;5132793;27;20447;-85
2022/03/25 11:59:47;;;;;;;35.30;20.67;;;23.50;23.20;;;;;;5134834;27;20456;-85
2022/03/25 12:02:26;;;;;;;37.40;21.80;;;23.50;22.40;;;;;;5124445;27;20955;-85
2022/03/25 12:04:52;;;;;;;34.07;21.87;;;23.50;23.00;;;;;;5131665;27;20468;-83
2022/03/25 12:07:20;;;;;;;35.63;21.13;;;23.40;23.20;;;;;;5118077;27;21225;-84
2022/03/25 12:09:47;;;;;;;38.60;21.87;;;23.30;23.60;;;;;;5133248;27;20456;-85
2022/03/25 12:12:15;;;;;;;37.13;22.10;;;23.20;22.50;;;;;;5132413;27;20457;-84
2022/03/25 12:15:10;;;;;;;34.20;19.47;;;23.60;22.30;;;;;;5122772;27;20509;-85
2022/03/25 12:17:37;;;;;;;39.07;19.80;;;23.80;22.30;;;;;;5134200;27;20460;-85
2022/03/25 12:20:06;;;;;;;37.07;20.50;;;23.40;21.60;;;;;;5116858;27;20456;-85
2022/03/25 12:22:41;;;;;;;36.27;20.37;;;23.20;21.70;;;;;;5114978;27;20460;-84
2022/03/25 12:25:21;;;;;;;35.50;20.70;;;23.30;22.10;;;;;;5112181;27;21674;-85
2022/03/25 12:27:53;;;;;;;31.73;18.23;;;23.20;21.70;;;;;;5140372;27;20469;-83
2022/03/25 12:30:21;;;;;;;36.10;20.50;;;23.40;22.10;;;;;;5122738;27;20461;-84
2022/03/25 12:32:48;;;;;;;36.77;20.73;;;23.60;21.10;;;;;;5116535;27;20830;-85
2022/03/25 12:35:17;;;;;;;34.20;20.07;;;23.70;21.80;;;;;;5133161;27;20464;-85
2022/03/25 12:38:19;;;;;;;34.87;20.20;;;23.80;20.70;;;;;;5126025;27;20465;-86
2022/03/25 12:40:48;;;;;;;37.27;21.47;;;24.00;20.80;;;;;;5129960;27;21165;-86